createdAt,value
2018-04-20T00:01:47.408Z,2.93
2018-04-20T00:04:14.252Z,3.90
2018-04-20T00:06:41.308Z,3.73
2018-04-20T00:09:08.358Z,3.10
2018-04-20T00:11:35.123Z,3.47
2018-04-20T00:14:02.142Z,3.20
2018-04-20T00:16:29.192Z,3.23
2018-04-20T00:18:56.037Z,2.97
2018-04-20T00:21:22.884Z,3.03
2018-04-20T00:23:49.939Z,3.57
2018-04-20T00:26:18.524Z,2.97
2018-04-20T00:28:45.411Z,3.23
2018-04-20T00:31:12.521Z,2.80
2018-04-20T00:33:39.337Z,3.10
2018-04-20T00:36:06.304Z,3.20
2018-04-20T00:38:33.254Z,2.87
2018-04-20T00:41:01.745Z,2.90
2018-04-20T00:43:28.826Z,2.67
2018-04-20T00:45:56.562Z,2.90
2018-04-20T00:48:23.606Z,2.40
2018-04-20T00:50:50.549Z,2.37
2018-04-20T00:53:17.595Z,2.80
2018-04-20T00:55:44.659Z,2.37
2018-04-20T00:58:11.494Z,2.50
2018-04-20T01:00:38.567Z,2.80
2018-04-20T01:03:06.217Z,2.37
2018-04-20T01:05:33.025Z,2.73
2018-04-20T01:08:00.100Z,2.93
2018-04-20T01:10:27.156Z,3.00
2018-04-20T01:12:54.195Z,2.60
2018-04-20T01:15:21.350Z,2.90
2018-04-20T01:17:48.295Z,2.83
2018-04-20T01:20:15.837Z,3.17
2018-04-20T01:22:42.821Z,2.80
2018-04-20T01:25:09.752Z,3.10
2018-04-20T01:27:36.703Z,2.90
2018-04-20T01:30:03.757Z,2.60
2018-04-20T01:32:30.696Z,2.80
2018-04-20T01:34:58.048Z,3.07
2018-04-20T01:37:24.931Z,3.30
2018-04-20T01:39:52.593Z,3.33
2018-04-20T01:42:20.333Z,2.80
2018-04-20T01:44:47.374Z,3.43
2018-04-20T01:47:14.421Z,3.10
2018-04-20T01:49:41.269Z,3.20
2018-04-20T01:52:08.215Z,3.00
2018-04-20T01:54:35.267Z,2.80
2018-04-20T01:57:02.221Z,3.60
2018-04-20T01:59:29.140Z,3.37
2018-04-20T02:01:56.937Z,3.27
2018-04-20T02:04:23.976Z,2.83
2018-04-20T02:06:50.936Z,3.20
2018-04-20T02:09:18.691Z,3.20
2018-04-20T02:11:45.532Z,3.03
2018-04-20T02:14:12.593Z,3.33
2018-04-20T02:16:39.646Z,3.47
2018-04-20T02:19:06.590Z,3.00
2018-04-20T02:21:33.537Z,3.50
2018-04-20T02:24:00.475Z,3.20
2018-04-20T02:26:27.296Z,3.10
2018-04-20T02:28:54.272Z,3.23
2018-04-20T02:31:22.035Z,3.23
2018-04-20T02:33:48.990Z,3.60
2018-04-20T02:36:16.047Z,3.20
2018-04-20T02:38:42.976Z,3.00
2018-04-20T02:41:09.924Z,3.50
2018-04-20T02:43:37.082Z,2.63
2018-04-20T02:46:04.022Z,3.23
2018-04-20T02:48:31.079Z,3.00
2018-04-20T02:50:58.033Z,3.30
2018-04-20T02:53:24.849Z,3.00
2018-04-20T02:55:51.824Z,2.80
2018-04-20T02:58:18.877Z,2.90
2018-04-20T03:00:45.809Z,3.30
2018-04-20T03:03:12.658Z,3.00
2018-04-20T03:05:39.716Z,2.97
2018-04-20T03:08:06.654Z,3.13
2018-04-20T03:10:33.621Z,3.13
2018-04-20T03:13:00.656Z,2.87
2018-04-20T03:15:27.504Z,2.60
2018-04-20T03:17:54.541Z,2.50
2018-04-20T03:20:21.710Z,2.80
2018-04-20T03:22:48.613Z,3.20
2018-04-20T03:25:15.487Z,2.63
2018-04-20T03:27:42.442Z,2.87
2018-04-20T03:30:09.480Z,2.70
2018-04-20T03:32:36.308Z,3.10
2018-04-20T03:35:03.279Z,2.87
2018-04-20T03:37:30.339Z,2.83
2018-04-20T03:39:57.293Z,2.53
2018-04-20T03:42:24.939Z,2.40
2018-04-20T03:44:51.923Z,3.17
2018-04-20T03:47:19.652Z,2.93
2018-04-20T03:49:46.494Z,2.70
2018-04-20T03:52:13.544Z,2.57
2018-04-20T03:54:40.591Z,2.70
2018-04-20T03:57:07.658Z,2.77
2018-04-20T03:59:35.406Z,3.10
2018-04-20T04:02:02.457Z,2.73
2018-04-20T04:04:29.515Z,3.43
2018-04-20T04:06:56.454Z,2.50
2018-04-20T04:09:23.514Z,2.70
2018-04-20T04:11:50.452Z,3.30
2018-04-20T04:14:23.871Z,3.00
2018-04-20T04:17:03.085Z,3.10
2018-04-20T04:19:42.050Z,2.73
2018-04-20T04:22:21.510Z,2.50
2018-04-20T04:25:01.312Z,2.67
2018-04-20T04:27:40.375Z,2.90
2018-04-20T04:30:08.102Z,2.70
2018-04-20T04:32:34.947Z,2.63
2018-04-20T04:35:02.017Z,2.03
2018-04-20T04:37:29.777Z,2.23
2018-04-20T04:39:56.716Z,2.53
2018-04-20T04:42:23.556Z,2.50
2018-04-20T04:44:50.612Z,3.00
2018-04-20T04:47:17.560Z,2.43
2018-04-20T04:49:44.498Z,2.50
2018-04-20T04:52:11.544Z,2.90
2018-04-20T04:54:38.493Z,2.80
2018-04-20T04:57:05.627Z,2.53
2018-04-20T04:59:32.603Z,3.60
2018-04-20T05:01:59.540Z,3.60
2018-04-20T05:04:26.390Z,3.30
2018-04-20T05:06:53.328Z,3.30
2018-04-20T05:09:20.493Z,3.17
2018-04-20T05:11:47.376Z,3.70
2018-04-20T05:14:28.222Z,3.27
2018-04-20T05:19:50.463Z,3.70
2018-04-20T05:22:17.416Z,3.83
2018-04-20T05:24:44.369Z,4.87
2018-04-20T05:27:11.405Z,3.93
2018-04-20T05:29:38.460Z,4.30
2018-04-20T05:32:05.327Z,4.30
2018-04-20T05:34:32.222Z,3.80
2018-04-20T05:36:59.092Z,3.80
2018-04-20T05:39:25.974Z,3.67
2018-04-20T05:41:53.806Z,4.70
2018-04-20T05:44:21.464Z,7.43
2018-04-20T05:46:48.347Z,8.07
2018-04-20T05:49:15.224Z,7.10
2018-04-20T05:51:42.141Z,6.63
2018-04-20T05:54:09.774Z,6.20
2018-04-20T05:56:36.680Z,6.37
2018-04-20T05:59:03.564Z,6.40
2018-04-20T06:01:31.516Z,6.00
2018-04-20T06:03:58.489Z,8.77
2018-04-20T06:06:25.404Z,15.57
2018-04-20T06:08:52.201Z,13.70
2018-04-20T06:11:26.223Z,11.97
2018-04-20T06:13:53.991Z,11.20
2018-04-20T06:16:21.680Z,10.07
2018-04-20T06:18:48.543Z,8.80
2018-04-20T06:21:15.428Z,8.20
2018-04-20T06:23:42.399Z,7.30
2018-04-20T06:26:09.221Z,7.67
2018-04-20T06:28:36.159Z,9.17
2018-04-20T06:31:03.015Z,8.20
2018-04-20T06:33:29.749Z,6.70
2018-04-20T06:35:56.656Z,6.50
2018-04-20T06:38:23.527Z,7.97
2018-04-20T06:40:50.358Z,8.10
2018-04-20T06:43:17.139Z,6.30
2018-04-20T06:45:44.718Z,6.03
2018-04-20T06:48:12.287Z,6.43
2018-04-20T06:50:40.429Z,6.33
2018-04-20T06:53:07.276Z,5.97
2018-04-20T06:55:34.100Z,6.47
2018-04-20T06:58:00.877Z,4.83
2018-04-20T07:00:28.518Z,4.10
2018-04-20T07:02:55.380Z,3.70
2018-04-20T07:05:22.970Z,4.97
2018-04-20T07:07:49.827Z,5.83
2018-04-20T07:10:16.648Z,5.30
2018-04-20T07:12:44.211Z,4.27
2018-04-20T07:15:11.851Z,4.23
2018-04-20T07:17:39.443Z,4.30
2018-04-20T07:20:06.233Z,4.40
2018-04-20T07:22:33.036Z,4.40
2018-04-20T07:25:00.895Z,4.70
2018-04-20T07:27:28.515Z,5.33
2018-04-20T07:29:55.332Z,5.73
2018-04-20T07:32:22.193Z,4.80
2018-04-20T07:34:48.959Z,5.43
2018-04-20T07:37:15.708Z,5.70
2018-04-20T07:39:42.544Z,5.10
2018-04-20T07:42:09.388Z,7.37
2018-04-20T07:44:36.177Z,6.60
2018-04-20T07:47:03.027Z,5.40
2018-04-20T07:49:29.923Z,6.30
2018-04-20T07:51:56.661Z,9.43
2018-04-20T07:54:23.535Z,9.80
2018-04-20T07:56:51.123Z,5.77
2018-04-20T07:59:17.881Z,5.80
2018-04-20T08:01:44.678Z,5.20
2018-04-20T08:04:12.186Z,5.90
2018-04-20T08:06:38.973Z,5.37
2018-04-20T08:09:06.521Z,4.20
2018-04-20T08:11:33.295Z,4.10
2018-04-20T08:14:00.935Z,3.07
2018-04-20T08:16:28.655Z,3.43
2018-04-20T08:18:55.424Z,3.83
2018-04-20T08:21:22.277Z,3.50
2018-04-20T08:23:49.085Z,2.80
2018-04-20T08:26:15.872Z,3.10
2018-04-20T08:28:42.708Z,2.57
2018-04-20T08:31:09.553Z,3.27
2018-04-20T08:33:36.434Z,3.00
2018-04-20T08:36:03.936Z,2.90
2018-04-20T08:38:30.731Z,2.40
2018-04-20T08:40:58.294Z,3.50
2018-04-20T08:43:25.824Z,3.77
2018-04-20T08:45:52.694Z,2.77
2018-04-20T08:48:20.271Z,2.90
2018-04-20T08:50:47.116Z,2.50
2018-04-20T08:53:13.968Z,2.80
2018-04-20T08:55:40.795Z,3.03
2018-04-20T08:58:08.460Z,3.20
2018-04-20T09:00:36.118Z,2.53
2018-04-20T09:03:03.740Z,3.20
2018-04-20T09:05:30.599Z,2.60
2018-04-20T09:07:57.432Z,2.20
2018-04-20T09:10:24.282Z,2.90
2018-04-20T09:12:51.256Z,2.87
2018-04-20T09:15:32.839Z,3.10
2018-04-20T09:17:59.572Z,2.90
2018-04-20T09:20:26.415Z,3.70
2018-04-20T09:22:53.289Z,2.70
2018-04-20T09:25:20.844Z,2.60
2018-04-20T09:27:48.388Z,2.90
2018-04-20T09:30:15.235Z,2.50
2018-04-20T09:32:42.072Z,2.27
2018-04-20T09:35:08.853Z,2.40
2018-04-20T09:37:36.447Z,2.50
2018-04-20T09:40:03.259Z,2.63
2018-04-20T09:42:30.140Z,2.17
2018-04-20T09:44:56.960Z,1.97
2018-04-20T09:47:23.745Z,1.93
2018-04-20T09:49:50.537Z,1.97
2018-04-20T09:52:18.147Z,2.07
2018-04-20T09:54:44.983Z,1.90
2018-04-20T09:57:11.834Z,2.00
2018-04-20T09:59:39.439Z,1.97
2018-04-20T10:02:07.056Z,2.10
2018-04-20T10:04:33.940Z,2.43
2018-04-20T10:07:01.493Z,2.20
2018-04-20T10:09:28.363Z,1.73
2018-04-20T10:11:55.853Z,1.70
2018-04-20T10:14:34.769Z,2.00
2018-04-20T10:17:01.634Z,2.10
2018-04-20T10:19:29.425Z,1.83
2018-04-20T10:21:56.300Z,2.47
2018-04-20T10:24:23.888Z,3.80
2018-04-20T10:26:50.719Z,3.23
2018-04-20T10:29:17.597Z,3.90
2018-04-20T10:31:44.356Z,3.50
2018-04-20T10:34:11.160Z,2.43
2018-04-20T10:36:37.885Z,2.10
2018-04-20T10:39:05.570Z,1.70
2018-04-20T10:41:32.471Z,1.67
2018-04-20T10:43:59.380Z,1.60
2018-04-20T10:46:26.249Z,1.90
2018-04-20T10:48:53.090Z,1.90
2018-04-20T10:51:19.930Z,1.53
2018-04-20T10:53:46.727Z,1.80
2018-04-20T10:56:14.330Z,1.70
2018-04-20T10:58:41.137Z,1.85
2018-04-20T11:01:08.731Z,1.83
2018-04-20T11:03:35.611Z,1.90
2018-04-20T11:06:02.557Z,2.05
2018-04-20T11:08:29.341Z,1.95
2018-04-20T11:10:56.242Z,2.15
2018-04-20T11:13:23.105Z,2.17
2018-04-20T11:15:54.235Z,2.25
2018-04-20T11:18:21.112Z,1.95
2018-04-20T11:20:47.934Z,2.20
2018-04-20T11:23:15.522Z,1.80
2018-04-20T11:25:42.331Z,2.03
2018-04-20T11:28:09.107Z,2.20
2018-04-20T11:30:35.979Z,2.00
2018-04-20T11:33:02.898Z,2.10
2018-04-20T11:35:30.302Z,2.22
2018-04-20T11:37:57.194Z,2.20
2018-04-20T11:40:24.753Z,2.03
2018-04-20T11:42:52.319Z,2.05
2018-04-20T11:45:19.804Z,2.00
2018-04-20T11:47:46.588Z,1.73
2018-04-20T11:50:13.487Z,2.00
2018-04-20T11:52:40.248Z,2.22
2018-04-20T11:55:07.134Z,2.15
2018-04-20T11:57:34.626Z,2.00
2018-04-20T12:00:02.505Z,1.73
2018-04-20T12:02:29.389Z,1.67
2018-04-20T12:04:56.166Z,2.00
2018-04-20T12:07:23.814Z,1.62
2018-04-20T12:09:51.466Z,1.37
2018-04-20T12:12:18.228Z,1.60
2018-04-20T12:15:16.533Z,2.50
2018-04-20T12:17:44.126Z,1.90
2018-04-20T12:20:11.019Z,2.00
2018-04-20T12:22:37.854Z,1.87
2018-04-20T12:25:04.784Z,1.80
2018-04-20T12:27:31.525Z,2.20
2018-04-20T12:29:58.384Z,2.10
2018-04-20T12:32:25.274Z,2.10
2018-04-20T12:34:52.126Z,2.00
2018-04-20T12:37:18.971Z,1.80
2018-04-20T12:39:45.886Z,1.50
2018-04-20T12:42:13.442Z,1.50
2018-04-20T12:44:41.050Z,1.60
2018-04-20T12:47:07.962Z,1.37
2018-04-20T12:49:35.558Z,1.60
2018-04-20T12:52:02.338Z,1.85
2018-04-20T12:54:29.201Z,1.50
2018-04-20T12:56:56.737Z,1.60
2018-04-20T12:59:23.531Z,1.65
2018-04-20T13:01:50.430Z,1.60
2018-04-20T13:04:17.310Z,1.98
2018-04-20T13:06:44.897Z,2.05
2018-04-20T13:09:11.653Z,1.70
2018-04-20T13:11:38.506Z,1.73
2018-04-20T13:14:05.462Z,1.55
2018-04-20T13:16:32.803Z,1.60
2018-04-20T13:18:59.628Z,1.45
2018-04-20T13:21:26.524Z,1.50
2018-04-20T13:23:53.363Z,1.73
2018-04-20T13:26:20.269Z,1.55
2018-04-20T13:28:47.141Z,1.52
2018-04-20T13:31:14.037Z,1.62
2018-04-20T13:33:41.607Z,1.60
2018-04-20T13:36:08.451Z,1.60
2018-04-20T13:38:36.036Z,1.80
2018-04-20T13:41:02.936Z,2.15
2018-04-20T13:43:29.749Z,2.10
2018-04-20T13:45:56.652Z,1.80
2018-04-20T13:48:23.352Z,1.67
2018-04-20T13:50:50.136Z,1.62
2018-04-20T13:53:16.975Z,1.65
2018-04-20T13:55:44.492Z,2.08
2018-04-20T13:58:11.337Z,1.85
2018-04-20T14:00:38.206Z,1.80
2018-04-20T14:03:04.998Z,1.45
2018-04-20T14:05:31.885Z,1.90
2018-04-20T14:07:58.644Z,1.80
2018-04-20T14:10:26.314Z,1.90
2018-04-20T14:12:53.898Z,1.48
2018-04-20T14:15:53.553Z,1.60
2018-04-20T14:18:20.352Z,2.10
2018-04-20T14:20:47.188Z,1.75
2018-04-20T14:23:14.038Z,1.83
2018-04-20T14:25:41.646Z,1.95
2018-04-20T14:28:08.491Z,1.83
2018-04-20T14:30:35.275Z,1.90
2018-04-20T14:33:02.782Z,2.20
2018-04-20T14:35:29.976Z,1.80
2018-04-20T14:37:57.479Z,1.77
2018-04-20T14:40:24.459Z,1.85
2018-04-20T14:42:51.240Z,2.03
2018-04-20T14:45:18.836Z,1.90
2018-04-20T14:47:45.723Z,1.90
2018-04-20T14:50:12.571Z,2.20
2018-04-20T14:52:39.420Z,2.30
2018-04-20T14:55:06.272Z,2.10
2018-04-20T14:57:33.830Z,2.00
2018-04-20T15:00:01.809Z,2.30
2018-04-20T15:02:29.434Z,2.00
2018-04-20T15:04:56.239Z,2.30
2018-04-20T15:07:23.015Z,2.20
2018-04-20T15:09:49.816Z,2.30
2018-04-20T15:12:17.398Z,2.22
2018-04-20T15:15:03.608Z,2.70
2018-04-20T15:17:30.447Z,2.10
2018-04-20T15:19:57.236Z,2.80
2018-04-20T15:22:24.840Z,5.60
2018-04-20T15:24:51.677Z,4.60
2018-04-20T15:27:19.307Z,4.50
2018-04-20T15:29:46.151Z,3.47
2018-04-20T15:32:13.069Z,3.40
2018-04-20T15:34:39.922Z,4.03
2018-04-20T15:37:06.724Z,4.60
2018-04-20T15:39:33.566Z,3.42
2018-04-20T15:42:00.388Z,2.67
2018-04-20T15:44:27.931Z,3.78
2018-04-20T15:46:54.726Z,3.58
2018-04-20T15:49:21.608Z,2.95
2018-04-20T15:51:48.367Z,3.10
2018-04-20T15:54:15.109Z,2.60
2018-04-20T15:56:41.950Z,2.70
2018-04-20T15:59:08.791Z,2.90
2018-04-20T16:01:35.547Z,2.37
2018-04-20T16:04:02.390Z,3.10
2018-04-20T16:06:29.949Z,3.05
2018-04-20T16:08:56.886Z,3.23
2018-04-20T16:11:26.916Z,2.70
2018-04-20T16:13:53.741Z,3.20
2018-04-20T16:16:53.087Z,3.47
2018-04-20T16:19:19.881Z,2.97
2018-04-20T16:21:46.693Z,3.40
2018-04-20T16:24:13.555Z,2.53
2018-04-20T16:26:40.364Z,2.60
2018-04-20T16:29:07.956Z,2.60
2018-04-20T16:31:34.774Z,3.50
2018-04-20T16:34:02.371Z,3.27
2018-04-20T16:39:02.881Z,3.07
2018-04-20T16:41:30.418Z,2.80
2018-04-20T16:43:57.274Z,3.07
2018-04-20T16:46:24.030Z,3.30
2018-04-20T16:48:51.584Z,2.40
2018-04-20T16:51:19.175Z,3.10
2018-04-20T16:53:45.997Z,3.20
2018-04-20T16:56:13.691Z,2.77
2018-04-20T16:58:40.465Z,2.90
2018-04-20T17:01:07.289Z,3.13
2018-04-20T17:03:34.108Z,3.40
2018-04-20T17:06:01.006Z,3.30
2018-04-20T17:08:27.846Z,2.90
2018-04-20T17:10:54.657Z,3.03
2018-04-20T17:13:21.493Z,2.70
2018-04-20T17:18:49.124Z,2.97
2018-04-20T17:21:16.076Z,3.30
2018-04-20T17:23:43.128Z,3.60
2018-04-20T17:26:10.166Z,3.13
2018-04-20T17:28:37.058Z,3.03
2018-04-20T17:31:04.815Z,3.40
2018-04-20T17:33:36.757Z,3.50
2018-04-20T17:36:04.007Z,3.37
2018-04-20T17:38:35.714Z,3.20
2018-04-20T17:41:07.789Z,3.50
2018-04-20T17:43:37.735Z,4.37
2018-04-20T17:46:09.609Z,4.43
2018-04-20T17:48:42.306Z,4.20
2018-04-20T17:51:10.362Z,4.17
2018-04-20T17:53:37.515Z,4.37
2018-04-20T17:56:04.634Z,55.53
2018-04-20T17:58:35.927Z,353.37
2018-04-20T18:01:03.165Z,364.00
2018-04-20T18:03:30.319Z,54.47
2018-04-20T18:05:57.474Z,108.30
2018-04-20T18:08:24.528Z,59.57
2018-04-20T18:10:51.481Z,18.17
2018-04-20T18:13:18.618Z,9.03
2018-04-20T18:16:05.115Z,4.77
2018-04-20T18:18:32.081Z,4.73
2018-04-20T18:20:59.149Z,5.60
2018-04-20T18:23:27.042Z,6.63
2018-04-20T18:25:55.522Z,7.33
2018-04-20T18:28:24.394Z,6.17
2018-04-20T18:31:02.236Z,4.00
2018-04-20T18:33:31.405Z,3.67
2018-04-20T18:35:59.167Z,3.20
2018-04-20T18:38:27.221Z,3.43
2018-04-20T18:40:54.154Z,3.70
2018-04-20T18:43:21.123Z,3.07
2018-04-20T18:46:12.953Z,2.97
2018-04-20T18:48:43.831Z,3.20
2018-04-20T18:51:13.007Z,3.20
2018-04-20T18:53:43.047Z,2.90
2018-04-20T18:56:12.699Z,3.00
2018-04-20T18:58:42.276Z,2.70
2018-04-20T19:01:12.884Z,2.70
2018-04-20T19:03:40.219Z,2.80
2018-04-20T19:06:07.795Z,3.30
2018-04-20T19:08:40.672Z,3.00
2018-04-20T19:11:09.556Z,3.10
2018-04-20T19:13:38.520Z,2.90
2018-04-20T19:16:18.653Z,2.67
2018-04-20T19:18:51.441Z,2.20
2018-04-20T19:21:18.428Z,2.43
2018-04-20T19:23:45.396Z,2.40
2018-04-20T19:26:16.305Z,2.50
2018-04-20T19:28:47.523Z,2.57
2018-04-20T19:31:18.230Z,2.60
2018-04-20T19:33:46.576Z,2.70
2018-04-20T19:36:16.414Z,3.50
